createdAt,value
2022-08-09T00:00:59.069Z,1.10
2022-08-09T00:04:06.221Z,0.90
2022-08-09T00:06:22.778Z,0.75
2022-08-09T00:08:52.323Z,0.80
2022-08-09T00:11:56.829Z,1.00
2022-08-09T00:14:17.381Z,1.00
2022-08-09T00:16:57.004Z,0.90
2022-08-09T00:19:27.662Z,0.88
2022-08-09T00:21:57.120Z,0.90
2022-08-09T00:24:27.299Z,0.88
2022-08-09T00:26:57.381Z,0.80
2022-08-09T00:29:39.304Z,1.45
2022-08-09T00:32:26.641Z,0.90
2022-08-09T00:34:56.538Z,0.90
2022-08-09T00:37:27.067Z,0.75
2022-08-09T00:40:14.008Z,1.02
2022-08-09T00:44:13.010Z,0.70
2022-08-09T00:45:35.266Z,0.98
2022-08-09T00:48:04.820Z,0.73
2022-08-09T00:50:34.040Z,0.80
2022-08-09T00:53:10.486Z,0.80
2022-08-09T00:56:04.537Z,1.05
2022-08-09T00:58:31.650Z,1.12
2022-08-09T01:01:00.412Z,1.05
2022-08-09T01:03:45.571Z,0.82
2022-08-09T01:06:54.542Z,1.00
2022-08-09T01:09:36.887Z,0.85
2022-08-09T01:12:41.047Z,1.00
2022-08-09T01:15:16.813Z,1.27
2022-08-09T01:17:57.623Z,0.90
2022-08-09T01:20:45.383Z,1.05
2022-08-09T01:24:02.903Z,0.90
2022-08-09T01:26:54.093Z,1.10
2022-08-09T01:29:55.775Z,0.90
2022-08-09T01:32:47.530Z,1.27
2022-08-09T01:35:38.725Z,0.90
2022-08-09T01:38:15.414Z,1.12
2022-08-09T01:41:02.954Z,1.20
2022-08-09T01:43:42.018Z,1.10
2022-08-09T01:46:25.013Z,0.98
2022-08-09T01:49:10.631Z,1.20
2022-08-09T01:51:54.195Z,1.00
2022-08-09T01:54:45.988Z,1.00
2022-08-09T01:57:23.913Z,1.30
2022-08-09T02:00:00.325Z,1.10
2022-08-09T02:02:43.545Z,0.93
2022-08-09T02:05:16.192Z,0.93
2022-08-09T02:08:38.948Z,1.05
2022-08-09T02:10:40.151Z,1.27
2022-08-09T02:13:13.693Z,1.35
2022-08-09T02:15:50.284Z,1.33
2022-08-09T02:18:25.367Z,1.10
2022-08-09T02:21:03.166Z,1.25
2022-08-09T02:23:40.128Z,0.98
2022-08-09T02:26:25.094Z,1.27
2022-08-09T02:28:59.658Z,1.30
2022-08-09T02:31:36.189Z,1.23
2022-08-09T02:34:13.602Z,1.08
2022-08-09T02:36:57.087Z,1.20
2022-08-09T02:39:41.806Z,1.65
2022-08-09T02:42:18.239Z,1.40
2022-08-09T02:44:50.507Z,1.25
2022-08-09T02:47:21.509Z,1.37
2022-08-09T02:50:04.983Z,1.42
2022-08-09T02:52:56.275Z,1.70
2022-08-09T02:55:46.579Z,1.30
2022-08-09T02:58:36.009Z,1.67
2022-08-09T03:01:10.879Z,1.15
2022-08-09T03:04:17.193Z,1.15
2022-08-09T03:06:35.050Z,1.42
2022-08-09T03:09:07.893Z,0.95
2022-08-09T03:12:10.389Z,1.20
2022-08-09T03:14:29.632Z,1.17
2022-08-09T03:17:01.908Z,1.10
2022-08-09T03:19:58.370Z,1.58
2022-08-09T03:22:25.380Z,1.60
2022-08-09T03:25:26.775Z,1.50
2022-08-09T03:27:51.902Z,1.65
2022-08-09T03:30:29.847Z,1.48
2022-08-09T03:33:17.768Z,1.40
2022-08-09T03:36:14.096Z,1.48
2022-08-09T03:38:42.153Z,1.27
2022-08-09T03:41:16.621Z,1.40
2022-08-09T03:44:03.265Z,1.60
2022-08-09T03:46:36.925Z,1.12
2022-08-09T03:49:08.473Z,1.25
2022-08-09T03:51:55.297Z,1.30
2022-08-09T03:54:32.226Z,1.40
2022-08-09T03:57:04.538Z,1.02
2022-08-09T03:59:56.030Z,1.40
2022-08-09T04:02:28.223Z,1.30
2022-08-09T04:05:05.689Z,1.10
2022-08-09T04:07:52.725Z,1.85
2022-08-09T04:10:28.434Z,1.12
2022-08-09T04:13:11.340Z,0.93
2022-08-09T04:16:18.697Z,1.10
2022-08-09T04:18:28.937Z,1.40
2022-08-09T04:20:57.306Z,1.73
2022-08-09T04:23:25.872Z,1.58
2022-08-09T04:25:55.070Z,1.70
2022-08-09T04:28:33.102Z,1.17
2022-08-09T04:31:09.037Z,1.40
2022-08-09T04:33:51.516Z,1.27
2022-08-09T04:36:24.589Z,1.87
2022-08-09T04:38:59.994Z,1.42
2022-08-09T04:41:33.186Z,1.20
2022-08-09T04:44:11.216Z,1.20
2022-08-09T04:46:59.993Z,1.15
2022-08-09T04:49:54.816Z,1.40
2022-08-09T04:52:28.263Z,1.50
2022-08-09T04:54:59.609Z,1.55
2022-08-09T04:57:58.969Z,1.50
2022-08-09T05:00:17.346Z,1.25
2022-08-09T05:02:51.675Z,1.15
2022-08-09T05:05:32.353Z,1.62
2022-08-09T05:08:14.093Z,1.60
2022-08-09T05:10:44.411Z,1.45
2022-08-09T05:13:13.068Z,1.37
2022-08-09T05:15:52.126Z,1.30
2022-08-09T05:18:39.192Z,1.67
2022-08-09T05:21:22.848Z,1.17
2022-08-09T05:24:00.577Z,1.85
2022-08-09T05:26:36.506Z,1.30
2022-08-09T05:29:17.530Z,1.08
2022-08-09T05:31:56.695Z,1.30
2022-08-09T05:34:32.509Z,1.33
2022-08-09T05:37:06.887Z,1.23
2022-08-09T05:39:43.787Z,1.30
2022-08-09T05:42:21.298Z,1.60
2022-08-09T05:44:54.887Z,1.30
2022-08-09T05:47:24.745Z,1.42
2022-08-09T05:50:35.108Z,1.30
2022-08-09T05:52:44.343Z,1.60
2022-08-09T05:55:20.723Z,1.40
2022-08-09T05:57:56.860Z,1.35
2022-08-09T06:00:28.851Z,1.73
2022-08-09T06:03:02.661Z,1.30
2022-08-09T06:05:56.883Z,1.42
2022-08-09T06:08:24.504Z,1.27
2022-08-09T06:10:58.115Z,1.87
2022-08-09T06:13:28.584Z,1.27
2022-08-09T06:16:04.805Z,1.50
2022-08-09T06:18:34.864Z,1.50
2022-08-09T06:21:04.441Z,1.17
2022-08-09T06:23:58.785Z,1.30
2022-08-09T06:26:28.664Z,1.75
2022-08-09T06:29:00.190Z,1.60
2022-08-09T06:31:30.660Z,1.10
2022-08-09T06:34:00.026Z,1.58
2022-08-09T06:36:29.886Z,1.87
2022-08-09T06:38:58.346Z,1.48
2022-08-09T06:42:07.687Z,1.33
2022-08-09T06:44:18.390Z,1.50
2022-08-09T06:46:49.740Z,1.50
2022-08-09T06:49:44.613Z,1.83
2022-08-09T06:52:15.882Z,1.35
2022-08-09T06:54:44.332Z,1.42
2022-08-09T06:57:13.477Z,1.17
2022-08-09T07:00:50.248Z,1.25
2022-08-09T07:02:32.189Z,1.30
2022-08-09T07:05:01.052Z,1.52
2022-08-09T07:08:00.331Z,1.37
2022-08-09T07:10:29.457Z,2.03
2022-08-09T07:12:59.922Z,1.40
2022-08-09T07:16:38.603Z,1.50
2022-08-09T07:18:17.033Z,1.50
2022-08-09T07:20:47.800Z,1.45
2022-08-09T07:23:19.097Z,1.62
2022-08-09T07:25:52.548Z,1.40
2022-08-09T07:28:34.669Z,1.55
2022-08-09T07:31:04.990Z,1.52
2022-08-09T07:33:52.938Z,1.20
2022-08-09T07:36:22.280Z,1.50
2022-08-09T07:39:00.369Z,1.30
2022-08-09T07:41:33.002Z,1.40
2022-08-09T07:44:06.934Z,1.50
2022-08-09T07:46:37.373Z,1.30
2022-08-09T07:49:08.353Z,1.45
2022-08-09T07:52:04.614Z,1.20
2022-08-09T07:54:32.214Z,1.30
2022-08-09T07:57:01.004Z,1.60
2022-08-09T07:59:34.395Z,1.48
2022-08-09T08:02:19.072Z,1.75
2022-08-09T08:04:49.229Z,1.55
2022-08-09T08:08:42.766Z,1.27
2022-08-09T08:10:11.316Z,1.52
2022-08-09T08:12:45.110Z,1.85
2022-08-09T08:15:24.346Z,1.58
2022-08-09T08:17:57.887Z,1.42
2022-08-09T08:23:16.028Z,1.45
2022-08-09T08:25:49.806Z,1.70
2022-08-09T08:28:32.087Z,1.25
2022-08-09T08:31:14.164Z,1.60
2022-08-09T08:33:53.723Z,1.42
2022-08-09T08:36:29.303Z,1.23
2022-08-09T08:39:00.062Z,1.33
2022-08-09T08:41:41.816Z,1.60
2022-08-09T08:44:23.132Z,1.45
2022-08-09T08:47:04.428Z,1.67
2022-08-09T08:49:47.676Z,1.40
2022-08-09T08:55:08.278Z,1.33
2022-08-09T08:57:37.898Z,1.55
2022-08-09T09:00:16.772Z,1.25
2022-08-09T09:02:52.946Z,1.35
2022-08-09T09:05:32.914Z,1.50
2022-08-09T09:08:29.351Z,1.33
2022-08-09T09:11:05.461Z,1.40
2022-08-09T09:13:55.903Z,1.33
2022-08-09T09:16:34.076Z,1.80
2022-08-09T09:22:15.958Z,1.70
2022-08-09T09:24:55.545Z,1.45
2022-08-09T09:28:06.116Z,1.65
2022-08-09T09:30:37.996Z,1.60
2022-08-09T09:33:14.394Z,1.33
2022-08-09T09:36:01.387Z,1.52
2022-08-09T09:38:40.227Z,1.40
2022-08-09T09:41:10.794Z,1.92
2022-08-09T09:43:41.238Z,1.52
2022-08-09T09:46:43.034Z,1.50
2022-08-09T09:49:32.157Z,1.50
2022-08-09T09:52:33.710Z,1.30
2022-08-09T09:55:27.662Z,1.65
2022-08-09T09:58:16.155Z,1.60
2022-08-09T10:00:58.782Z,1.50
2022-08-09T10:03:57.524Z,2.03
2022-08-09T10:06:43.474Z,1.50
2022-08-09T10:09:22.279Z,2.37
2022-08-09T10:12:14.403Z,1.42
2022-08-09T10:14:49.050Z,1.37
2022-08-09T10:17:39.836Z,1.12
2022-08-09T10:20:32.624Z,1.25
2022-08-09T10:23:24.981Z,1.45
2022-08-09T10:26:06.837Z,1.65
2022-08-09T10:28:41.383Z,1.42
2022-08-09T10:34:10.035Z,1.20
2022-08-09T10:36:56.701Z,1.25
2022-08-09T10:39:28.438Z,1.35
2022-08-09T10:41:57.477Z,1.12
2022-08-09T10:44:30.458Z,1.20
2022-08-09T10:47:04.143Z,1.27
2022-08-09T10:50:30.766Z,1.58
2022-08-09T10:55:55.668Z,1.40
2022-08-09T10:58:34.726Z,1.17
2022-08-09T11:03:02.734Z,1.50
2022-08-09T11:04:28.158Z,1.37
2022-08-09T11:07:00.953Z,1.30
2022-08-09T11:09:41.437Z,1.23
2022-08-09T11:12:20.034Z,1.50
2022-08-09T11:14:57.393Z,1.37
2022-08-09T11:17:26.280Z,1.40
2022-08-09T11:20:19.844Z,1.20
2022-08-09T11:22:56.923Z,1.23
2022-08-09T11:25:44.975Z,1.17
2022-08-09T11:28:34.528Z,1.17
2022-08-09T11:31:34.099Z,1.70
2022-08-09T11:34:10.283Z,1.25
2022-08-09T11:36:44.294Z,1.25
2022-08-09T11:39:12.573Z,1.25
2022-08-09T11:41:45.415Z,1.60
2022-08-09T11:44:13.629Z,1.30
2022-08-09T11:46:54.066Z,1.40
2022-08-09T11:50:53.772Z,1.30
2022-08-09T11:53:57.816Z,1.42
2022-08-09T11:56:02.781Z,1.40
2022-08-09T12:01:15.370Z,1.33
2022-08-09T12:04:20.908Z,1.17
2022-08-09T12:06:57.141Z,1.40
2022-08-09T12:09:33.600Z,1.42
2022-08-09T12:12:13.173Z,1.20
2022-08-09T12:15:07.590Z,1.30
2022-08-09T12:17:43.298Z,1.15
2022-08-09T12:20:21.786Z,1.08
2022-08-09T12:22:56.392Z,1.50
2022-08-09T12:25:36.016Z,1.70
2022-08-09T12:29:15.497Z,1.50
2022-08-09T12:31:02.992Z,1.20
2022-08-09T12:33:58.604Z,1.58
2022-08-09T12:36:32.031Z,1.20
2022-08-09T12:39:02.475Z,1.73
2022-08-09T12:41:39.117Z,1.60
2022-08-09T12:44:10.053Z,1.35
2022-08-09T12:46:49.083Z,1.30
2022-08-09T12:49:20.950Z,1.20
2022-08-09T12:52:02.567Z,1.42
2022-08-09T12:56:12.209Z,0.95
2022-08-09T12:57:47.056Z,1.12
2022-08-09T13:00:18.424Z,1.45
2022-08-09T13:02:59.974Z,1.40
2022-08-09T13:05:51.512Z,1.23
2022-08-09T13:08:40.158Z,1.35
2022-08-09T13:11:22.832Z,1.20
2022-08-09T13:14:37.041Z,1.12
2022-08-09T13:16:53.533Z,1.60
2022-08-09T13:20:09.413Z,1.23
2022-08-09T13:22:36.418Z,1.35
2022-08-09T13:25:07.652Z,1.30
2022-08-09T13:27:39.411Z,1.15
2022-08-09T13:30:49.173Z,1.20
2022-08-09T13:33:04.681Z,1.40
2022-08-09T13:35:34.781Z,1.52
2022-08-09T13:38:55.937Z,1.50
2022-08-09T13:41:46.924Z,1.30
2022-08-09T13:43:58.160Z,1.20
2022-08-09T13:47:16.103Z,1.33
2022-08-09T13:49:18.499Z,1.33
2022-08-09T13:52:00.554Z,1.40
2022-08-09T13:54:30.401Z,1.17
2022-08-09T13:56:58.981Z,1.50
2022-08-09T13:59:27.453Z,1.60
2022-08-09T14:02:10.456Z,1.15
2022-08-09T14:04:38.954Z,1.60
2022-08-09T14:07:17.773Z,1.37
2022-08-09T14:09:47.122Z,1.70
2022-08-09T14:12:21.575Z,1.55
2022-08-09T14:14:53.664Z,1.10
2022-08-09T14:17:22.713Z,1.48
2022-08-09T14:19:52.636Z,1.45
2022-08-09T14:22:21.971Z,1.45
2022-08-09T14:24:54.020Z,1.60
2022-08-09T14:27:22.888Z,1.20
2022-08-09T14:30:34.863Z,1.65
2022-08-09T14:32:43.998Z,1.20
2022-08-09T14:35:12.315Z,1.23
2022-08-09T14:38:01.330Z,1.50
2022-08-09T14:41:01.254Z,1.52
2022-08-09T14:43:18.716Z,1.60
2022-08-09T14:46:54.808Z,1.08
2022-08-09T14:48:35.870Z,1.25
2022-08-09T14:51:05.371Z,1.30
2022-08-09T14:53:33.533Z,1.30
2022-08-09T14:56:08.524Z,1.20
2022-08-09T14:58:44.024Z,1.25
2022-08-09T15:01:13.179Z,1.20
2022-08-09T15:03:42.130Z,1.48
2022-08-09T15:06:14.810Z,1.30
2022-08-09T15:08:43.265Z,1.20
2022-08-09T15:11:11.489Z,1.30
2022-08-09T15:13:56.119Z,1.30
2022-08-09T15:16:30.401Z,1.52
2022-08-09T15:19:02.486Z,1.15
2022-08-09T15:21:55.526Z,1.55
2022-08-09T15:24:27.562Z,1.45
2022-08-09T15:26:56.185Z,1.10
2022-08-09T15:30:58.205Z,1.20
2022-08-09T15:32:29.439Z,1.20
2022-08-09T15:35:18.395Z,1.30
2022-08-09T15:38:10.985Z,1.48
2022-08-09T15:40:43.933Z,1.42
2022-08-09T15:43:13.711Z,1.40
2022-08-09T15:46:07.616Z,1.15
2022-08-09T15:48:32.062Z,1.50
2022-08-09T15:51:01.325Z,1.30
2022-08-09T15:54:05.154Z,1.20
2022-08-09T15:56:28.933Z,1.15
2022-08-09T15:58:59.061Z,1.10
2022-08-09T16:01:27.596Z,0.90
2022-08-09T16:04:00.065Z,1.20
2022-08-09T16:06:35.764Z,1.00
2022-08-09T16:09:06.563Z,1.33
2022-08-09T16:11:34.894Z,1.17
2022-08-09T16:14:06.880Z,1.10
2022-08-09T16:16:38.048Z,1.30
2022-08-09T16:19:13.536Z,1.10
2022-08-09T16:21:52.013Z,1.02
2022-08-09T16:24:33.251Z,1.25
2022-08-09T16:27:05.192Z,1.00
2022-08-09T16:29:38.014Z,1.35
2022-08-09T16:32:34.105Z,1.08
2022-08-09T16:35:03.250Z,1.30
2022-08-09T16:37:53.405Z,1.40
2022-08-09T16:40:40.280Z,1.15
2022-08-09T16:43:09.906Z,1.10
2022-08-09T16:45:43.756Z,1.17
2022-08-09T16:48:41.797Z,1.33
2022-08-09T16:51:07.637Z,1.17
2022-08-09T16:53:37.300Z,1.10
2022-08-09T16:56:10.297Z,1.10
2022-08-09T16:58:42.556Z,1.10
2022-08-09T17:01:19.431Z,1.08
2022-08-09T17:03:55.208Z,1.50
2022-08-09T17:06:31.813Z,1.10
2022-08-09T17:09:16.194Z,1.23
2022-08-09T17:11:52.448Z,1.20
2022-08-09T17:14:27.915Z,1.27
2022-08-09T17:16:59.512Z,1.20
2022-08-09T17:20:05.091Z,1.02
2022-08-09T17:22:25.111Z,1.52
2022-08-09T17:25:10.239Z,2.45
2022-08-09T17:27:49.128Z,1.92
2022-08-09T17:30:19.789Z,2.00
2022-08-09T17:32:48.550Z,1.55
2022-08-09T17:35:16.948Z,1.98
2022-08-09T17:38:12.452Z,1.60
2022-08-09T17:40:34.995Z,1.45
2022-08-09T17:43:32.763Z,1.40
2022-08-09T17:46:03.389Z,1.02
2022-08-09T17:48:46.490Z,0.90
2022-08-09T17:51:21.660Z,1.10
2022-08-09T17:53:54.926Z,1.20
2022-08-09T17:56:35.757Z,1.00
2022-08-09T17:59:09.104Z,0.88
2022-08-09T18:02:12.792Z,1.52
2022-08-09T18:04:29.874Z,1.20
2022-08-09T18:06:59.237Z,1.15
2022-08-09T18:09:40.688Z,1.10
2022-08-09T18:12:20.177Z,0.88
2022-08-09T18:14:54.969Z,1.83
2022-08-09T18:17:27.599Z,1.33
2022-08-09T18:20:56.930Z,1.20
2022-08-09T18:23:07.403Z,1.23
2022-08-09T18:25:51.219Z,1.00
2022-08-09T18:30:38.264Z,1.17
2022-08-09T18:31:11.964Z,0.93
2022-08-09T18:33:40.781Z,1.17
2022-08-09T18:36:14.395Z,1.00
2022-08-09T18:39:00.918Z,1.10
2022-08-09T18:41:34.350Z,1.23
2022-08-09T18:44:13.295Z,0.98
2022-08-09T18:46:47.708Z,0.90
2022-08-09T18:49:27.369Z,0.88
2022-08-09T18:52:00.062Z,0.68
2022-08-09T18:54:30.150Z,0.70
2022-08-09T18:57:06.000Z,0.70
2022-08-09T18:59:36.998Z,0.75
2022-08-09T19:02:07.309Z,1.02
2022-08-09T19:04:35.986Z,0.88
2022-08-09T19:07:05.322Z,0.80
2022-08-09T19:10:15.747Z,0.80
2022-08-09T19:12:25.686Z,0.90
2022-08-09T19:14:54.273Z,0.93
2022-08-09T19:17:22.498Z,0.75
2022-08-09T19:19:51.304Z,0.52
2022-08-09T19:22:28.680Z,0.73
2022-08-09T19:25:10.025Z,0.80
2022-08-09T19:27:45.848Z,0.50
2022-08-09T19:30:23.167Z,0.50
2022-08-09T19:32:56.530Z,0.60
2022-08-09T19:35:28.885Z,0.52
2022-08-09T19:38:16.944Z,0.70
2022-08-09T19:40:46.245Z,0.73
2022-08-09T19:43:58.114Z,0.70
2022-08-09T19:46:14.367Z,0.52
2022-08-09T19:49:01.036Z,0.75
2022-08-09T19:51:31.795Z,0.90
2022-08-09T19:54:06.866Z,0.60
2022-08-09T19:56:39.847Z,0.60
2022-08-09T19:59:39.534Z,0.68
2022-08-09T20:02:08.019Z,0.70
2022-08-09T20:04:53.032Z,0.80
2022-08-09T20:07:57.111Z,0.60
2022-08-09T20:10:17.824Z,0.60
2022-08-09T20:12:51.948Z,0.75
2022-08-09T20:16:32.806Z,0.60
2022-08-09T20:18:10.524Z,0.60
2022-08-09T20:20:40.900Z,0.40
2022-08-09T20:23:09.786Z,0.60
2022-08-09T20:25:38.205Z,0.65
2022-08-09T20:28:24.452Z,0.40
2022-08-09T20:31:04.802Z,0.50
2022-08-09T20:33:38.946Z,0.73
2022-08-09T20:36:10.602Z,0.77
2022-08-09T20:41:34.986Z,0.60
2022-08-09T20:44:10.550Z,0.57
2022-08-09T20:46:42.663Z,0.60
2022-08-09T20:49:15.809Z,0.60
2022-08-09T20:51:50.667Z,0.68
2022-08-09T20:54:19.481Z,0.70
2022-08-09T20:56:49.862Z,0.57
2022-08-09T20:59:50.166Z,0.62
2022-08-09T21:02:17.803Z,0.70
2022-08-09T21:05:56.646Z,0.45
2022-08-09T21:07:40.197Z,0.60
2022-08-09T21:10:11.892Z,0.60
2022-08-09T21:12:40.332Z,0.45
2022-08-09T21:15:12.437Z,0.57
2022-08-09T21:18:21.742Z,0.60
2022-08-09T21:20:32.216Z,0.60
2022-08-09T21:23:00.953Z,0.57
2022-08-09T21:25:55.962Z,0.45
2022-08-09T21:28:34.930Z,0.40
2022-08-09T21:31:17.959Z,0.73
2022-08-09T21:33:51.303Z,0.80
2022-08-09T21:36:27.842Z,0.60
2022-08-09T21:38:59.559Z,0.75
2022-08-09T21:42:05.478Z,0.68
2022-08-09T21:44:34.367Z,1.17
2022-08-09T21:47:08.851Z,0.50
2022-08-09T21:49:40.587Z,0.57
2022-08-09T21:52:16.499Z,0.57
2022-08-09T21:55:03.521Z,0.80
2022-08-09T21:57:39.635Z,0.40
2022-08-09T22:00:33.201Z,0.50
2022-08-09T22:03:12.576Z,0.50
2022-08-09T22:05:51.147Z,0.52
2022-08-09T22:08:22.917Z,0.60
2022-08-09T22:11:50.167Z,0.60
2022-08-09T22:13:44.544Z,0.60
2022-08-09T22:16:12.868Z,0.60
2022-08-09T22:18:54.553Z,0.60
2022-08-09T22:21:44.736Z,0.50
2022-08-09T22:24:16.780Z,0.50
2022-08-09T22:26:51.835Z,0.60
2022-08-09T22:29:28.971Z,0.55
2022-08-09T22:32:02.012Z,0.50
2022-08-09T22:34:30.577Z,0.50
2022-08-09T22:36:59.559Z,0.62
2022-08-09T22:39:57.936Z,0.60
2022-08-09T22:42:20.752Z,0.70
2022-08-09T22:45:11.568Z,0.60
2022-08-09T22:48:15.662Z,0.60
2022-08-09T22:50:30.923Z,0.60
2022-08-09T22:53:03.771Z,0.60
2022-08-09T22:56:06.366Z,0.77
2022-08-09T22:58:32.107Z,0.80
2022-08-09T23:01:04.220Z,0.57
2022-08-09T23:04:05.485Z,0.77
2022-08-09T23:06:35.118Z,0.73
2022-08-09T23:09:07.771Z,0.50
2022-08-09T23:11:36.460Z,0.70
2022-08-09T23:14:09.995Z,0.62
2022-08-09T23:16:45.752Z,0.50
2022-08-09T23:19:13.945Z,0.70
2022-08-09T23:21:42.352Z,0.60
2022-08-09T23:24:11.567Z,0.50
2022-08-09T23:26:40.562Z,0.60
2022-08-09T23:29:13.483Z,0.52
2022-08-09T23:31:42.204Z,0.52
2022-08-09T23:34:10.575Z,0.68
2022-08-09T23:36:38.860Z,0.70
2022-08-09T23:39:08.194Z,0.70
2022-08-09T23:41:36.622Z,0.80
2022-08-09T23:44:05.104Z,0.60
2022-08-09T23:46:33.765Z,0.65
2022-08-09T23:49:02.214Z,0.82
2022-08-09T23:51:30.453Z,0.80
2022-08-09T23:54:02.371Z,0.70
2022-08-09T23:56:52.571Z,0.75
2022-08-09T23:59:24.339Z,0.62
